Angle Inlet, Minnesota
Current Conditions -  °F | °C
As of 1:14 AM on Saturday 25 Oct 2014 (Local Time) from KFGN Reporting Station
Clear Clear  
Wind Chill: 52°   Ceiling: Unl
Heat Index: 52°   Visibility: 10mi
Dew Point: 36°   Wind: 24mph
Humidity: 54%   Direction: 290°WNW
Pressure: 29.76"   Gusts: 32mph
Location:  49.35°N, 95.08°W
Report Text: KFGN 250614Z AUTO 29021G28KT 10SM CLR 11/02 A2976 RMK AO2
Loading
Personal Weather Stations






























Interactive Weather Map
Tropical Storm Tracking
New forecast layout! Learn more

10-Day Weather Forecast

Advertisements
Track Severe Weather on mobile